Time;durP1;ratioP1;P1;durP2;ratioP2;P2;SDS_P1;SDS_P2;PMS_P1;PMS_P2;Temp;Humidity;BMP_temperature;BMP_pressure;BME280_temperature;BME280_humidity;BME280_pressure;Samples;Min_cycle;Max_cycle;Signal;HPM_P1;HPM_P2
2022/03/28 02:24:55;;;;;;;;;;;;;;;5.41;100.00;100442.59;4882836;29;19936;-84
2022/03/28 02:27:20;;;;;;;;;;;;;;;5.42;100.00;100438.19;4894461;29;19924;-83
2022/03/28 02:29:46;;;;;;;;;;;;;;;5.43;100.00;100437.31;4896891;29;19923;-83
2022/03/28 02:32:12;;;;;;;;;;;;;;;5.43;100.00;100439.94;4895882;29;19926;-82
2022/03/28 02:34:37;;;;;;;;;;;;;;;5.50;100.00;100446.00;4895737;29;19920;-81
2022/03/28 02:37:03;;;;;;;;;;;;;;;5.54;100.00;100434.56;4911651;29;20583;-90
2022/03/28 02:39:28;;;;;;;;;;;;;;;5.55;100.00;100431.94;4893951;29;20294;-88
2022/03/28 02:41:53;;;;;;;;;;;;;;;5.55;100.00;100431.94;4895677;29;20409;-87
2022/03/28 02:44:19;;;;;;;;;;;;;;;5.58;100.00;100431.88;4897064;29;20299;-84
2022/03/28 02:46:48;;;;;;;;;;;;;;;5.60;100.00;100430.09;4897026;29;19931;-84
2022/03/28 02:49:13;;;;;;;;;;;;;;;5.67;100.00;100428.28;4897185;29;19920;-90
2022/03/28 02:51:39;;;;;;;;;;;;;;;5.65;100.00;100435.31;4896950;29;19927;-85
2022/03/28 02:54:05;;;;;;;;;;;;;;;5.66;100.00;100434.41;4895737;29;20367;-84
2022/03/28 02:56:30;;;;;;;;;;;;;;;5.67;100.00;100430.91;4896952;29;19923;-85
2022/03/28 02:58:55;;;;;;;;;;;;;;;5.68;100.00;100424.75;4896710;29;20390;-84
2022/03/28 03:01:20;;;;;;;;;;;;;;;5.68;100.00;100427.38;4896716;29;19920;-88
2022/03/28 03:03:46;;;;;;;;;;;;;;;5.72;100.00;100418.56;4897143;29;20018;-86
2022/03/28 03:06:11;;;;;;;;;;;;;;;5.74;100.00;100416.75;4895726;29;19975;-90
2022/03/28 03:08:36;;;;;;;;;;;;;;;5.78;100.00;100415.00;4895705;29;19923;-84
2022/03/28 03:11:01;;;;;;;;;;;;;;;5.84;100.00;100420.19;4896877;29;19919;-83
2022/03/28 03:13:27;;;;;;;;;;;;;;;5.86;100.00;100426.28;4897014;29;19926;-83
2022/03/28 03:15:52;;;;;;;;;;;;;;;5.89;100.00;100417.44;4911186;29;19920;-84
2022/03/28 03:18:17;;;;;;;;;;;;;;;5.88;100.00;100419.22;4895707;29;19920;-83
2022/03/28 03:20:43;;;;;;;;;;;;;;;5.90;100.00;100422.69;4911290;29;19919;-84
2022/03/28 03:23:08;;;;;;;;;;;;;;;5.93;100.00;100416.53;4894262;29;20331;-85
2022/03/28 03:25:34;;;;;;;;;;;;;;;5.91;100.00;100420.94;4897522;29;19924;-87
2022/03/28 03:27:59;;;;;;;;;;;;;;;5.95;100.00;100420.91;4896500;29;20010;-87
2022/03/28 03:30:24;;;;;;;;;;;;;;;5.98;100.00;100418.25;4896783;29;19919;-85
2022/03/28 03:32:49;;;;;;;;;;;;;;;5.92;100.00;100420.03;4910878;29;20438;-84
2022/03/28 03:35:15;;;;;;;;;;;;;;;5.97;100.00;100418.28;4896822;29;19919;-84
2022/03/28 03:37:40;;;;;;;;;;;;;;;5.97;100.00;100413.88;4909803;29;20135;-87
2022/03/28 03:40:06;;;;;;;;;;;;;;;5.97;100.00;100418.28;4910114;29;20330;-84
2022/03/28 03:42:32;;;;;;;;;;;;;;;5.99;100.00;100417.34;4911041;29;20022;-83
2022/03/28 03:44:58;;;;;;;;;;;;;;;6.00;100.00;100403.31;4895189;29;20050;-83
2022/03/28 07:57:32;;;;;;;;;;;;;;;2.27;81.83;100384.81;5380881;23;19942;-84
2022/03/28 07:59:58;;;;;;;;;;;;;;;2.35;82.10;100380.47;4932743;29;19927;-84
2022/03/28 08:02:24;;;;;;;;;;;;;;;2.35;82.25;100372.63;4936539;29;20009;-88
2022/03/28 08:04:49;;;;;;;;;;;;;;;2.34;82.48;100375.22;4934913;29;20014;-85
2022/03/28 08:07:14;;;;;;;;;;;;;;;2.34;82.61;100373.47;4931017;29;20413;-91
2022/03/28 08:09:40;;;;;;;;;;;;;;;2.41;82.39;100370.88;4936321;29;20061;-88
2022/03/28 08:12:06;;;;;;;;;;;;;;;2.39;82.59;100368.25;4931124;29;20433;-91
2022/03/28 08:14:31;;;;;;;;;;;;;;;2.39;82.46;100357.78;4935045;29;20412;-87
2022/03/28 08:16:58;;;;;;;;;;;;;;;2.43;82.42;100363.91;4935447;29;19931;-84
2022/03/28 08:19:23;;;;;;;;;;;;;;;2.40;82.57;100366.53;4951041;28;19962;-90
2022/03/28 08:21:49;;;;;;;;;;;;;;;2.41;82.58;100366.53;4935704;29;19965;-84
2022/03/28 08:24:14;;;;;;;;;;;;;;;2.43;82.46;100369.16;4934270;29;20271;-85
2022/03/28 08:26:39;;;;;;;;;;;;;;;2.45;82.21;100360.41;4933545;29;20005;-83
2022/03/28 08:29:05;;;;;;;;;;;;;;;2.47;82.09;100355.16;4935971;29;19926;-86
2022/03/28 08:31:31;;;;;;;;;;;;;;;2.51;82.32;100349.06;4935887;29;19923;-85
2022/03/28 08:33:56;;;;;;;;;;;;;;;2.49;82.28;100349.06;4936020;29;19934;-90
2022/03/28 08:36:22;;;;;;;;;;;;;;;2.48;82.48;100341.22;4934083;29;19970;-89
2022/03/28 08:38:47;;;;;;;;;;;;;;;2.49;82.55;100340.34;4934052;29;19923;-84
2022/03/28 08:41:14;;;;;;;;;;;;;;;2.54;82.57;100341.22;4933353;29;20013;-84
2022/03/28 08:43:40;;;;;;;;;;;;;;;2.53;82.36;100339.47;4949992;29;19919;-83
2022/03/28 08:46:05;;;;;;;;;;;;;;;2.57;82.19;100329.88;4950915;28;19929;-89
2022/03/28 08:48:33;;;;;;;;;;;;;;;2.58;82.07;100327.25;4936459;29;19923;-84
2022/03/28 08:50:59;;;;;;;;;;;;;;;2.54;81.60;100333.38;4935266;29;19922;-91
2022/03/28 08:53:24;;;;;;;;;;;;;;;2.56;81.63;100328.16;4935121;29;19946;-86
2022/03/28 08:55:49;;;;;;;;;;;;;;;2.58;81.73;100327.25;4935587;29;19927;-88
2022/03/28 08:58:14;;;;;;;;;;;;;;;2.59;81.66;100325.53;4934608;29;20004;-85
2022/03/28 09:00:40;;;;;;;;;;;;;;;2.59;81.84;100329.00;4935612;29;20396;-89
2022/03/28 09:03:05;;;;;;;;;;;;;;;2.61;81.94;100326.38;4934325;29;19925;-88
2022/03/28 09:05:32;;;;;;;;;;;;;;;2.64;82.19;100323.75;4935637;29;19927;-89
2022/03/28 09:07:58;;;;;;;;;;;;;;;2.63;82.15;100322.00;4934935;29;19927;-89
2022/03/28 09:10:24;;;;;;;;;;;;;;;2.63;82.00;100312.44;4935850;29;20001;-87
2022/03/28 09:12:58;;;;;;;;;;;;;;;2.67;81.98;100311.53;4932217;29;19922;-88
2022/03/28 09:15:24;;;;;;;;;;;;;;;2.68;81.81;100308.06;4934931;29;19962;-84
2022/03/28 09:17:56;;;;;;;;;;;;;;;2.69;81.54;100307.16;4935325;29;19962;-87
2022/03/28 09:20:22;;;;;;;;;;;;;;;2.69;81.52;100304.53;4934765;29;20382;-87
2022/03/28 09:22:49;;;;;;;;;;;;;;;2.70;81.83;100295.84;4935191;29;19923;-89
2022/03/28 09:25:14;;;;;;;;;;;;;;;2.71;81.77;100302.81;4934506;29;19926;-86
2022/03/28 09:27:41;;;;;;;;;;;;;;;2.73;82.04;100293.22;4932085;29;20382;-89
2022/03/28 09:30:10;;;;;;;;;;;;;;;2.73;82.11;100287.13;4933786;29;19926;-87
2022/03/28 09:32:37;;;;;;;;;;;;;;;2.76;82.22;100284.50;4933053;29;19927;-88
2022/03/28 09:35:12;;;;;;;;;;;;;;;2.77;82.15;100290.59;4940052;29;19970;-89
2022/03/28 09:37:56;;;;;;;;;;;;;;;2.81;82.47;100281.81;4941039;29;19926;-85
2022/03/28 09:40:22;;;;;;;;;;;;;;;2.84;82.66;100279.19;4932301;29;19958;-87
2022/03/28 09:42:48;;;;;;;;;;;;;;;4.94;89.54;100269.75;4948134;28;20413;-78
2022/03/28 09:45:21;;;;;;;;;;;;;;;5.42;85.74;100268.22;4933192;29;19965;-87
2022/03/28 09:48:00;;;;;;;;;;;;;;;4.09;85.90;100270.63;4934057;29;19927;-90
2022/03/28 09:50:27;;;;;;;;;;;;;;;3.69;86.52;100279.66;4949301;28;19930;-85
2022/03/28 09:52:52;;;;;;;;;;;;;;;3.52;86.16;100276.28;4934690;29;19931;-88
2022/03/28 09:55:17;;;;;;;;;;;;;;;3.43;86.07;100266.72;4934522;29;19934;-89
2022/03/28 09:57:43;;;;;;;;;;;;;;;3.36;85.73;100260.63;4932325;29;19997;-87
2022/03/28 10:00:15;;;;;;;;;;;;;;;3.32;85.37;100264.19;4934312;29;19918;-89
2022/03/28 10:02:40;;;;;;;;;;;;;;;3.28;85.13;100254.56;4932696;29;19923;-88
2022/03/28 10:05:06;;;;;;;;;;;;;;;3.28;84.93;100249.34;4931647;29;20388;-86
2022/03/28 10:07:32;;;;;;;;;;;;;;;3.25;84.90;100249.34;4933525;29;19919;-87
2022/03/28 10:09:57;;;;;;;;;;;;;;;3.23;84.79;100241.50;4933831;29;19931;-83
2022/03/28 10:12:23;;;;;;;;;;;;;;;3.25;84.40;100238.88;4933155;29;19930;-87
2022/03/28 10:14:51;;;;;;;;;;;;;;;3.22;84.11;100241.50;4933573;29;19922;-85
2022/03/28 10:17:19;;;;;;;;;;;;;;;3.22;84.03;100236.28;4933376;29;20198;-83
2022/03/28 10:19:45;;;;;;;;;;;;;;;3.24;83.99;100234.53;4932033;29;19929;-88
2022/03/28 10:22:15;;;;;;;;;;;;;;;3.23;83.73;100227.56;4931588;29;19931;-83
2022/03/28 10:24:41;;;;;;;;;;;;;;;3.22;83.61;100220.56;4933086;29;19927;-85
2022/03/28 10:27:07;;;;;;;;;;;;;;;3.23;83.50;100214.44;4931698;29;19958;-84
2022/03/28 10:29:34;;;;;;;;;;;;;;;3.21;83.26;100211.84;4933701;29;20260;-88
2022/03/28 10:32:01;;;;;;;;;;;;;;;3.22;83.29;100199.59;4932959;29;19934;-84
2022/03/28 10:34:44;;;;;;;;;;;;;;;3.23;83.38;100198.75;4932513;29;19926;-86
2022/03/28 10:37:25;;;;;;;;;;;;;;;3.26;83.61;100190.88;4933458;29;20453;-85
2022/03/28 10:39:51;;;;;;;;;;;;;;;3.27;83.47;100193.47;4934197;29;19923;-84
2022/03/28 10:42:26;;;;;;;;;;;;;;;3.27;83.55;100187.34;4932305;29;20350;-86
2022/03/28 10:44:59;;;;;;;;;;;;;;;3.26;83.51;100180.38;4933962;29;20298;-88
2022/03/28 10:47:41;;;;;;;;;;;;;;;3.26;83.55;100178.63;4949082;29;19923;-84
2022/03/28 10:50:08;;;;;;;;;;;;;;;3.28;83.57;100173.38;4948393;29;19953;-83
2022/03/28 10:52:34;;;;;;;;;;;;;;;3.31;83.36;100168.13;4932454;29;19927;-83
2022/03/28 10:55:05;;;;;;;;;;;;;;;3.31;83.28;100165.50;4932984;29;19930;-83
2022/03/28 10:57:31;;;;;;;;;;;;;;;3.31;83.33;100160.25;4946148;28;19926;-86
2022/03/28 11:00:14;;;;;;;;;;;;;;;3.33;83.18;100160.25;4935726;29;19927;-88
2022/03/28 11:02:40;;;;;;;;;;;;;;;3.34;83.16;100147.16;4935813;29;19966;-83
2022/03/28 11:05:07;;;;;;;;;;;;;;;3.34;83.14;100152.38;4938469;29;20411;-86
2022/03/28 11:07:32;;;;;;;;;;;;;;;3.35;83.05;100148.00;4938085;29;19943;-88
2022/03/28 11:10:09;;;;;;;;;;;;;;;3.35;83.14;100148.91;4936322;29;19927;-87
2022/03/28 11:12:37;;;;;;;;;;;;;;;3.38;83.23;100138.41;4936320;29;19918;-84
2022/03/28 11:15:05;;;;;;;;;;;;;;;3.39;83.14;100139.25;4936542;29;19926;-84
2022/03/28 11:17:38;;;;;;;;;;;;;;;3.41;83.04;100127.00;4936337;29;20036;-87
2022/03/28 11:20:14;;;;;;;;;;;;;;;3.42;82.90;100132.22;4927452;29;20275;-85
2022/03/28 11:23:09;;;;;;;;;;;;;;;3.43;83.01;100130.47;4934212;29;19923;-88
2022/03/28 11:25:44;;;;;;;;;;;;;;;3.45;83.11;100119.13;4920174;29;19926;-85
2022/03/28 11:28:15;;;;;;;;;;;;;;;3.49;83.09;100119.09;4934956;29;19919;-88
2022/03/28 11:30:43;;;;;;;;;;;;;;;3.51;83.27;100115.59;4937225;29;20026;-88
2022/03/28 11:33:09;;;;;;;;;;;;;;;3.52;83.15;100109.44;4936737;29;19919;-89
2022/03/28 11:35:34;;;;;;;;;;;;;;;3.55;82.95;100106.78;4937861;29;19919;-83
2022/03/28 11:38:01;;;;;;;;;;;;;;;3.54;82.74;100109.44;4937700;29;19919;-88
2022/03/28 11:40:35;;;;;;;;;;;;;;;3.55;82.69;100105.94;4936177;29;19923;-87
2022/03/28 11:43:01;;;;;;;;;;;;;;;3.56;82.54;100110.31;4943314;29;19923;-85
2022/03/28 11:45:26;;;;;;;;;;;;;;;3.57;82.55;100098.91;4935999;29;19929;-83
2022/03/28 11:47:52;;;;;;;;;;;;;;;3.57;82.56;100091.06;4935199;29;19923;-85
2022/03/28 11:50:17;;;;;;;;;;;;;;;3.60;82.46;100080.56;4935628;29;19977;-84
2022/03/28 11:52:48;;;;;;;;;;;;;;;3.64;82.26;100084.88;4937541;29;19927;-84
2022/03/28 11:55:21;;;;;;;;;;;;;;;3.62;82.19;100079.66;4937045;29;19951;-86
2022/03/28 12:00:34;;;;;;;;;;;;;;;3.67;82.23;100071.75;4937325;29;20293;-85
2022/03/28 12:03:00;;;;;;;;;;;;;;;3.69;82.26;100074.38;4934757;29;19930;-84
2022/03/28 12:05:28;;;;;;;;;;;;;;;3.70;82.19;100057.72;4935280;29;20379;-87
2022/03/28 12:07:54;;;;;;;;;;;;;;;3.70;82.11;100057.72;4939091;29;19923;-87
2022/03/28 12:10:26;;;;;;;;;;;;;;;3.70;82.16;100048.16;4936180;29;20292;-88
2022/03/28 12:12:52;;;;;;;;;;;;;;;3.73;81.96;100047.22;4932992;29;19929;-84
2022/03/28 12:15:29;;;;;;;;;;;;;;;3.71;81.75;100041.13;4935341;29;20021;-85
2022/03/28 12:17:55;;;;;;;;;;;;;;;3.71;81.73;100035.91;4935820;29;19970;-85
2022/03/28 12:20:22;;;;;;;;;;;;;;;3.74;81.78;100036.72;4934526;29;20005;-83
2022/03/28 12:22:48;;;;;;;;;;;;;;;3.81;82.05;100025.31;4934950;29;19926;-84
2022/03/28 12:25:28;;;;;;;;;;;;;;;3.79;81.85;100015.72;4932231;29;20013;-89
2022/03/28 12:27:54;;;;;;;;;;;;;;;3.80;81.71;100015.69;4932688;29;19945;-86
2022/03/28 12:30:23;;;;;;;;;;;;;;;3.76;81.78;100013.97;4928136;29;19926;-88
2022/03/28 12:32:49;;;;;;;;;;;;;;;3.82;81.77;100020.91;4934156;29;19923;-87
2022/03/28 12:35:16;;;;;;;;;;;;;;;3.80;81.51;100007.81;4934717;29;19930;-84
2022/03/28 12:37:41;;;;;;;;;;;;;;;3.86;81.31;100003.38;4931599;29;19922;-84
2022/03/28 12:40:07;;;;;;;;;;;;;;;3.87;81.03;99997.28;4930995;29;19930;-89
2022/03/28 12:42:33;;;;;;;;;;;;;;;3.88;80.88;99992.00;4934003;29;20027;-83
2022/03/28 12:44:59;;;;;;;;;;;;;;;3.87;80.81;99999.91;4935262;29;20018;-85
2022/03/28 12:47:28;;;;;;;;;;;;;;;3.88;80.87;99991.13;4934801;29;20025;-89
2022/03/28 12:49:54;;;;;;;;;;;;;;;3.93;81.20;99989.34;4935674;29;20453;-87
2022/03/28 12:52:24;;;;;;;;;;;;;;;4.07;82.70;99987.41;4934435;29;19922;-89
2022/03/28 12:54:56;;;;;;;;;;;;;;;4.16;84.50;99976.78;4933221;29;20506;-89
2022/03/28 12:57:28;;;;;;;;;;;;;;;4.16;86.15;99974.16;4933297;29;20009;-86
2022/03/28 12:59:54;;;;;;;;;;;;;;;4.14;87.54;99973.31;4935079;29;19927;-89
2022/03/28 13:02:22;;;;;;;;;;;;;;;4.15;88.85;99969.81;4935234;29;20386;-84
2022/03/28 13:04:49;;;;;;;;;;;;;;;4.11;89.84;99964.63;4932657;29;20441;-90
2022/03/28 13:07:17;;;;;;;;;;;;;;;4.02;90.62;99957.75;4935321;29;19922;-89
2022/03/28 13:09:52;;;;;;;;;;;;;;;3.93;91.52;99950.88;4935815;29;19927;-85
2022/03/28 13:12:18;;;;;;;;;;;;;;;3.84;92.26;99947.50;4934734;29;20321;-86
2022/03/28 13:14:48;;;;;;;;;;;;;;;3.81;93.22;99949.28;4934469;29;19970;-83
2022/03/28 13:17:14;;;;;;;;;;;;;;;3.86;94.37;99945.72;4935417;29;19922;-84
2022/03/28 13:19:41;;;;;;;;;;;;;;;3.84;96.22;99940.50;4935976;29;20037;-87
2022/03/28 13:22:07;;;;;;;;;;;;;;;4.06;99.51;99932.34;4934048;29;19922;-85
2022/03/28 13:24:34;;;;;;;;;;;;;;;4.33;100.00;99931.09;4935363;29;20794;-86
2022/03/28 13:29:50;;;;;;;;;;;;;;;4.70;100.00;99920.00;4934525;29;19968;-84
2022/03/28 13:32:16;;;;;;;;;;;;;;;4.80;100.00;99932.06;4934985;29;19927;-84
2022/03/28 13:34:41;;;;;;;;;;;;;;;4.87;100.00;99923.22;4934346;29;19942;-84
2022/03/28 13:37:07;;;;;;;;;;;;;;;4.88;100.00;99919.69;4933492;29;20410;-85
2022/03/28 13:39:32;;;;;;;;;;;;;;;4.95;100.00;99909.94;4933672;29;19933;-84
2022/03/28 13:41:57;;;;;;;;;;;;;;;5.01;100.00;99912.47;4923375;29;19926;-89
2022/03/28 13:44:24;;;;;;;;;;;;;;;5.05;100.00;99915.91;4934983;29;19994;-84
2022/03/28 13:46:50;;;;;;;;;;;;;;;5.09;100.00;99901.81;4933767;29;19918;-86
2022/03/28 13:49:16;;;;;;;;;;;;;;;5.12;100.00;99893.00;4931933;29;19938;-84
2022/03/28 13:51:42;;;;;;;;;;;;;;;5.18;100.00;99891.13;4933085;29;19945;-83
2022/03/28 13:54:07;;;;;;;;;;;;;;;5.21;100.00;99885.81;4949326;28;20030;-84
2022/03/28 13:56:33;;;;;;;;;;;;;;;5.27;100.00;99890.94;4930653;29;19966;-85
2022/03/28 13:58:58;;;;;;;;;;;;;;;5.34;100.00;99888.19;4928234;29;19923;-86
2022/03/28 14:01:27;;;;;;;;;;;;;;;5.35;100.00;99876.81;4932324;29;19927;-87
2022/03/28 14:03:53;;;;;;;;;;;;;;;5.34;100.00;99870.66;4933808;29;20338;-84
2022/03/28 14:06:19;;;;;;;;;;;;;;;5.36;100.00;99871.53;4933326;29;19923;-88
2022/03/28 14:08:44;;;;;;;;;;;;;;;5.42;100.00;99868.75;4934990;29;20034;-89
2022/03/28 14:11:13;;;;;;;;;;;;;;;5.46;100.00;99872.19;4932255;29;19976;-88
2022/03/28 14:13:39;;;;;;;;;;;;;;;5.48;100.00;99862.50;4933139;29;19950;-88
2022/03/28 14:16:05;;;;;;;;;;;;;;;5.50;100.00;99863.34;4933813;29;19929;-84
2022/03/28 14:18:30;;;;;;;;;;;;;;;5.51;100.00;99861.59;4934391;29;20285;-85
2022/03/28 14:20:55;;;;;;;;;;;;;;;5.58;100.00;99863.19;4932455;29;19925;-86
2022/03/28 14:23:20;;;;;;;;;;;;;;;5.56;100.00;99855.31;4932544;29;20016;-87
2022/03/28 14:25:46;;;;;;;;;;;;;;;5.62;100.00;99854.34;4933971;29;20410;-89
2022/03/28 14:28:11;;;;;;;;;;;;;;;4.72;100.00;99857.84;4931556;29;19922;-85
2022/03/28 14:30:36;;;;;;;;;;;;;;;4.35;100.00;99850.59;4933794;29;20272;-89
2022/03/28 14:33:04;;;;;;;;;;;;;;;4.09;100.00;99848.41;4932516;29;19942;-83
2022/03/28 14:35:29;;;;;;;;;;;;;;;3.98;100.00;99846.78;4931067;29;19986;-85
2022/03/28 14:37:55;;;;;;;;;;;;;;;3.82;100.00;99847.91;4933531;29;20061;-87
2022/03/28 14:40:21;;;;;;;;;;;;;;;3.81;100.00;99843.53;4933328;29;19919;-83
2022/03/28 14:42:47;;;;;;;;;;;;;;;3.73;100.00;99841.03;4931184;29;19927;-87
2022/03/28 14:45:13;;;;;;;;;;;;;;;3.63;100.00;99834.19;4932484;29;19929;-84
2022/03/28 14:47:38;;;;;;;;;;;;;;;3.58;100.00;99842.13;4931990;29;19923;-87
2022/03/28 14:50:08;;;;;;;;;;;;;;;3.55;100.00;99830.81;4932945;29;19929;-83
2022/03/28 14:52:33;;;;;;;;;;;;;;;3.56;100.00;99828.19;4932522;29;19930;-83
2022/03/28 14:54:59;;;;;;;;;;;;;;;3.37;100.00;99821.44;4932636;29;19923;-86
2022/03/28 14:57:24;;;;;;;;;;;;;;;3.34;100.00;99816.25;4930885;29;19923;-84
2022/03/28 14:59:50;;;;;;;;;;;;;;;3.39;100.00;99809.19;4930992;29;20039;-83
2022/03/28 15:02:15;;;;;;;;;;;;;;;3.38;100.00;99803.09;4931376;29;20023;-84
2022/03/28 15:04:40;;;;;;;;;;;;;;;3.32;100.00;99810.13;4931893;29;19942;-85
2022/03/28 15:07:06;;;;;;;;;;;;;;;3.28;100.00;99801.47;4931788;29;19923;-86
2022/03/28 15:09:31;;;;;;;;;;;;;;;3.38;100.00;99803.09;4931481;29;20373;-84
2022/03/28 15:11:56;;;;;;;;;;;;;;;3.27;99.69;99794.47;4930377;29;19934;-84
2022/03/28 15:14:21;;;;;;;;;;;;;;;3.32;99.58;99791.81;4932023;29;20397;-85
2022/03/28 15:16:50;;;;;;;;;;;;;;;3.22;99.33;99791.94;4932945;29;19935;-83
2022/03/28 15:19:17;;;;;;;;;;;;;;;3.21;98.68;99777.13;4933939;29;19918;-84
2022/03/28 15:21:42;;;;;;;;;;;;;;;3.17;98.55;99780.66;4932732;29;19978;-84
2022/03/28 15:24:08;;;;;;;;;;;;;;;3.12;97.79;99776.38;4928694;29;20781;-84
2022/03/28 15:26:34;;;;;;;;;;;;;;;3.09;97.67;99767.69;4932190;29;20346;-84
2022/03/28 15:28:59;;;;;;;;;;;;;;;3.12;97.38;99774.59;4931413;29;19926;-84
2022/03/28 15:31:27;;;;;;;;;;;;;;;3.07;97.03;99773.81;4929591;29;19978;-86
2022/03/28 15:33:55;;;;;;;;;;;;;;;3.07;96.74;99766.81;4923390;29;19927;-84
2022/03/28 15:36:20;;;;;;;;;;;;;;;3.06;96.26;99759.84;4931884;29;19931;-84
2022/03/28 15:38:45;;;;;;;;;;;;;;;3.02;96.29;99763.38;4932061;29;20278;-84
2022/03/28 15:41:11;;;;;;;;;;;;;;;2.97;95.79;99759.97;4932735;29;19926;-84
2022/03/28 15:43:36;;;;;;;;;;;;;;;2.95;95.73;99751.25;4932738;29;19922;-84
2022/03/28 15:46:02;;;;;;;;;;;;;;;2.98;95.55;99751.22;4935912;29;19923;-84
2022/03/28 15:48:27;;;;;;;;;;;;;;;3.03;95.02;99751.16;4937639;29;19922;-85
2022/03/28 15:50:53;;;;;;;;;;;;;;;2.89;94.80;99741.72;4936399;29;20006;-84
2022/03/28 15:53:19;;;;;;;;;;;;;;;2.96;94.45;99741.66;4937503;29;19984;-84
2022/03/28 15:55:48;;;;;;;;;;;;;;;2.89;93.99;99735.66;4937400;29;20413;-84
2022/03/28 15:58:13;;;;;;;;;;;;;;;2.93;93.87;99736.47;4936068;29;19945;-84
2022/03/28 16:00:38;;;;;;;;;;;;;;;2.87;93.76;99732.16;4937492;29;20437;-84
2022/03/28 16:03:04;;;;;;;;;;;;;;;2.90;93.53;99726.88;4935944;29;19918;-84
2022/03/28 16:05:29;;;;;;;;;;;;;;;2.87;93.11;99726.91;4937305;29;19918;-83
2022/03/28 16:07:55;;;;;;;;;;;;;;;2.89;93.06;99725.19;4935997;29;19930;-83
2022/03/28 16:10:20;;;;;;;;;;;;;;;2.84;92.76;99717.38;4935175;29;20406;-83
2022/03/28 16:12:45;;;;;;;;;;;;;;;2.82;92.82;99720.88;4934772;29;19919;-84
2022/03/28 16:15:11;;;;;;;;;;;;;;;2.77;92.54;99714.84;4937075;29;19923;-84
2022/03/28 16:17:38;;;;;;;;;;;;;;;2.79;92.51;99707.84;4937125;29;20335;-83
2022/03/28 16:20:04;;;;;;;;;;;;;;;2.78;92.39;99700.88;4932686;29;19922;-83
2022/03/28 16:22:30;;;;;;;;;;;;;;;2.73;92.26;99709.66;4935476;29;19918;-83
2022/03/28 16:24:55;;;;;;;;;;;;;;;2.73;92.18;99699.19;4937341;29;19918;-83
2022/03/28 16:27:20;;;;;;;;;;;;;;;2.72;92.33;99701.81;4933975;29;19923;-83
2022/03/28 16:29:46;;;;;;;;;;;;;;;2.70;92.26;99698.38;4936919;29;19919;-84
2022/03/28 16:32:11;;;;;;;;;;;;;;;2.70;92.43;99693.97;4936983;29;20298;-83
2022/03/28 16:34:39;;;;;;;;;;;;;;;2.70;92.32;99686.13;4936827;29;20298;-83
2022/03/28 16:37:04;;;;;;;;;;;;;;;2.69;92.25;99689.63;4936195;29;19923;-83
2022/03/28 16:39:30;;;;;;;;;;;;;;;2.72;92.25;99686.13;4935257;29;19926;-84
2022/03/28 16:41:55;;;;;;;;;;;;;;;2.71;92.34;99685.25;4934077;29;19923;-83
2022/03/28 16:44:20;;;;;;;;;;;;;;;2.69;92.20;99681.78;4935060;29;20389;-83
2022/03/28 16:46:46;;;;;;;;;;;;;;;2.64;91.86;99683.59;4935184;29;19923;-83
2022/03/28 16:49:11;;;;;;;;;;;;;;;2.62;91.80;99674.03;4935097;29;19919;-83
2022/03/28 16:51:39;;;;;;;;;;;;;;;2.65;91.76;99661.78;4935149;29;20001;-84
2022/03/28 16:54:05;;;;;;;;;;;;;;;2.58;91.63;99662.72;4935957;29;19919;-83
2022/03/28 16:56:31;;;;;;;;;;;;;;;2.69;91.22;99666.06;4933476;29;20385;-83
2022/03/28 16:58:57;;;;;;;;;;;;;;;2.64;91.15;99667.88;4936049;29;20148;-83
2022/03/28 17:01:22;;;;;;;;;;;;;;;2.67;90.89;99667.00;4934886;29;19926;-83
2022/03/28 17:03:47;;;;;;;;;;;;;;;2.63;90.81;99652.22;4936510;29;20025;-84
2022/03/28 17:06:13;;;;;;;;;;;;;;;2.66;90.56;99657.41;4934028;29;20433;-84
2022/03/28 17:08:38;;;;;;;;;;;;;;;2.68;90.36;99653.91;4934912;29;19915;-83
2022/03/28 17:11:03;;;;;;;;;;;;;;;2.66;90.32;99652.19;4935472;29;19919;-83
2022/03/28 17:13:30;;;;;;;;;;;;;;;2.62;90.14;99653.97;4934470;29;20267;-83
2022/03/28 17:15:57;;;;;;;;;;;;;;;2.63;89.97;99650.47;4935334;29;20021;-83
2022/03/28 17:18:26;;;;;;;;;;;;;;;2.66;89.77;99644.31;4934603;29;19922;-84
2022/03/28 17:20:52;;;;;;;;;;;;;;;2.69;89.80;99644.28;4936110;29;19926;-84
2022/03/28 17:23:17;;;;;;;;;;;;;;;2.65;89.51;99645.19;4934689;29;20342;-83
2022/03/28 17:25:45;;;;;;;;;;;;;;;2.59;89.62;99634.84;4934648;29;19919;-84
2022/03/28 17:28:10;;;;;;;;;;;;;;;2.64;89.53;99628.66;4934544;29;19925;-83
2022/03/28 17:30:35;;;;;;;;;;;;;;;2.62;89.16;99632.19;4934436;29;19919;-83
2022/03/28 17:33:00;;;;;;;;;;;;;;;2.64;89.12;99633.88;4935706;29;20370;-84
2022/03/28 17:35:26;;;;;;;;;;;;;;;2.64;88.73;99630.41;4934327;29;19919;-84
2022/03/28 17:37:51;;;;;;;;;;;;;;;2.60;88.57;99628.69;4935707;29;20275;-84
2022/03/28 17:40:21;;;;;;;;;;;;;;;2.65;88.49;99626.88;4935627;29;20015;-83
2022/03/28 17:42:47;;;;;;;;;;;;;;;2.64;88.35;99626.03;4934305;29;19954;-83
2022/03/28 17:45:12;;;;;;;;;;;;;;;2.62;88.16;99627.81;4935397;29;19962;-82
2022/03/28 17:47:37;;;;;;;;;;;;;;;2.64;88.20;99626.03;4935586;29;20362;-85
2022/03/28 17:50:03;;;;;;;;;;;;;;;2.60;87.99;99624.38;4934185;29;19974;-85
2022/03/28 17:52:29;;;;;;;;;;;;;;;2.66;87.93;99628.63;4935354;29;19915;-83
2022/03/28 17:54:54;;;;;;;;;;;;;;;2.66;87.72;99624.25;4935336;29;20006;-83
2022/03/28 17:57:19;;;;;;;;;;;;;;;2.66;87.45;99624.25;4933843;29;19974;-84
2022/03/28 17:59:44;;;;;;;;;;;;;;;2.64;87.48;99622.56;4935194;29;19982;-83
2022/03/28 18:02:10;;;;;;;;;;;;;;;2.67;87.37;99619.91;4935133;29;19923;-83
2022/03/28 18:04:35;;;;;;;;;;;;;;;2.63;87.31;99619.09;4935052;29;19919;-83
2022/03/28 18:07:01;;;;;;;;;;;;;;;2.68;87.32;99616.38;4934296;29;19963;-83
2022/03/28 18:09:28;;;;;;;;;;;;;;;2.63;87.30;99629.56;4934220;29;20005;-83
2022/03/28 18:11:54;;;;;;;;;;;;;;;2.65;87.23;99622.53;4933768;29;20382;-83
2022/03/28 18:14:21;;;;;;;;;;;;;;;2.65;87.13;99625.16;4932827;29;20058;-82
2022/03/28 18:16:47;;;;;;;;;;;;;;;2.64;87.04;99623.41;4933510;29;19977;-84
2022/03/28 18:19:15;;;;;;;;;;;;;;;2.66;86.88;99619.03;4933602;29;20323;-84
2022/03/28 18:21:42;;;;;;;;;;;;;;;2.63;86.82;99629.56;4932929;29;19927;-83
2022/03/28 18:24:07;;;;;;;;;;;;;;;2.68;86.90;99621.63;4933568;29;19923;-84
2022/03/28 18:26:36;;;;;;;;;;;;;;;2.65;86.83;99626.88;4933604;29;19945;-84
2022/03/28 18:29:02;;;;;;;;;;;;;;;2.67;86.64;99623.38;4924867;29;19919;-83
2022/03/28 18:31:28;;;;;;;;;;;;;;;2.65;86.46;99627.78;4934610;29;19923;-83
2022/03/28 18:33:54;;;;;;;;;;;;;;;2.65;86.37;99627.78;4935083;29;19923;-83
2022/03/28 18:36:19;;;;;;;;;;;;;;;2.67;86.08;99631.22;4933529;29;20373;-83
2022/03/28 18:38:45;;;;;;;;;;;;;;;2.66;86.08;99629.50;4934928;29;19923;-83
2022/03/28 18:41:10;;;;;;;;;;;;;;;2.65;86.03;99622.53;4928732;29;19923;-83
2022/03/28 18:43:36;;;;;;;;;;;;;;;2.67;85.84;99627.75;4933372;29;19930;-83
2022/03/28 18:46:02;;;;;;;;;;;;;;;2.67;85.79;99630.38;4933842;29;19982;-83
2022/03/28 18:48:28;;;;;;;;;;;;;;;2.70;85.86;99628.56;4934574;29;20289;-83
2022/03/28 18:50:53;;;;;;;;;;;;;;;2.69;85.48;99632.06;4933447;29;19923;-84
2022/03/28 18:53:20;;;;;;;;;;;;;;;2.67;85.50;99628.63;4933398;29;19919;-83
2022/03/28 18:55:46;;;;;;;;;;;;;;;2.69;85.48;99623.34;4933229;29;19938;-83
2022/03/28 18:58:11;;;;;;;;;;;;;;;2.72;85.34;99629.41;4933210;29;19923;-84
2022/03/28 19:00:37;;;;;;;;;;;;;;;2.72;85.17;99634.66;4934443;29;19923;-83
2022/03/28 19:03:03;;;;;;;;;;;;;;;2.72;85.17;99628.56;4934545;29;19918;-83
2022/03/28 19:05:29;;;;;;;;;;;;;;;2.76;85.22;99630.25;4934107;29;20298;-83
2022/03/28 19:07:57;;;;;;;;;;;;;;;2.77;85.08;99636.34;4934691;29;19922;-83
2022/03/28 19:10:22;;;;;;;;;;;;;;;2.72;84.92;99639.03;4934491;29;20014;-86
2022/03/28 19:12:48;;;;;;;;;;;;;;;2.75;84.87;99633.75;4915993;29;20041;-83
2022/03/28 19:15:13;;;;;;;;;;;;;;;2.75;84.84;99638.13;4934423;29;19922;-83
2022/03/28 19:17:39;;;;;;;;;;;;;;;2.76;84.76;99635.50;4934306;29;19927;-83
2022/03/28 19:20:06;;;;;;;;;;;;;;;2.75;84.50;99630.28;4932836;29;19919;-83
2022/03/28 19:22:31;;;;;;;;;;;;;;;2.76;84.37;99627.63;4936660;29;19919;-83
2022/03/28 19:24:57;;;;;;;;;;;;;;;2.78;84.18;99625.84;4938229;29;20314;-84
2022/03/28 19:27:24;;;;;;;;;;;;;;;2.79;84.07;99618.88;4936681;29;20349;-83